sensor_id;sensor_type;location;lat;lon;timestamp;P1;durP1;ratioP1;P2;durP2;ratioP2
67516;SDS011;68821;59.134;37.894;2023-08-21T00:00:02;6.38;;;2.33;;
67516;SDS011;68821;59.134;37.894;2023-08-21T00:02:30;6.60;;;2.17;;
67516;SDS011;68821;59.134;37.894;2023-08-21T00:04:56;10.32;;;2.33;;
67516;SDS011;68821;59.134;37.894;2023-08-21T00:07:23;5.18;;;1.70;;
67516;SDS011;68821;59.134;37.894;2023-08-21T00:09:49;4.05;;;1.90;;
67516;SDS011;68821;59.134;37.894;2023-08-21T00:12:15;4.82;;;1.98;;
67516;SDS011;68821;59.134;37.894;2023-08-21T00:14:41;8.65;;;2.53;;
67516;SDS011;68821;59.134;37.894;2023-08-21T00:17:07;5.20;;;2.17;;
67516;SDS011;68821;59.134;37.894;2023-08-21T00:19:34;8.27;;;2.60;;
67516;SDS011;68821;59.134;37.894;2023-08-21T00:22:00;6.00;;;2.42;;
67516;SDS011;68821;59.134;37.894;2023-08-21T00:24:26;7.78;;;2.75;;
67516;SDS011;68821;59.134;37.894;2023-08-21T00:26:53;8.23;;;2.85;;
67516;SDS011;68821;59.134;37.894;2023-08-21T00:29:19;12.25;;;3.45;;
67516;SDS011;68821;59.134;37.894;2023-08-21T00:31:45;10.55;;;3.20;;
67516;SDS011;68821;59.134;37.894;2023-08-21T00:34:11;12.57;;;3.53;;
67516;SDS011;68821;59.134;37.894;2023-08-21T00:36:37;6.78;;;2.90;;
67516;SDS011;68821;59.134;37.894;2023-08-21T00:39:03;9.40;;;3.40;;
67516;SDS011;68821;59.134;37.894;2023-08-21T00:41:29;7.38;;;3.45;;
67516;SDS011;68821;59.134;37.894;2023-08-21T00:43:55;27.88;;;13.20;;
67516;SDS011;68821;59.134;37.894;2023-08-21T00:46:21;6.38;;;2.35;;
67516;SDS011;68821;59.134;37.894;2023-08-21T00:48:47;9.57;;;2.47;;
67516;SDS011;68821;59.134;37.894;2023-08-21T00:51:14;6.13;;;2.80;;
67516;SDS011;68821;59.134;37.894;2023-08-21T00:53:41;5.35;;;2.00;;
67516;SDS011;68821;59.134;37.894;2023-08-21T00:56:08;8.60;;;2.55;;
67516;SDS011;68821;59.134;37.894;2023-08-21T00:58:34;6.63;;;2.10;;
67516;SDS011;68821;59.134;37.894;2023-08-21T01:01:00;6.18;;;2.20;;
67516;SDS011;68821;59.134;37.894;2023-08-21T01:03:28;7.82;;;2.30;;
67516;SDS011;68821;59.134;37.894;2023-08-21T01:05:54;7.22;;;2.22;;
67516;SDS011;68821;59.134;37.894;2023-08-21T01:08:21;8.48;;;2.15;;
67516;SDS011;68821;59.134;37.894;2023-08-21T01:11:14;6.45;;;2.20;;
67516;SDS011;68821;59.134;37.894;2023-08-21T01:14:03;4.70;;;2.08;;
67516;SDS011;68821;59.134;37.894;2023-08-21T01:16:37;8.50;;;2.47;;
67516;SDS011;68821;59.134;37.894;2023-08-21T01:19:15;5.57;;;2.50;;
67516;SDS011;68821;59.134;37.894;2023-08-21T01:21:50;8.50;;;2.17;;
67516;SDS011;68821;59.134;37.894;2023-08-21T01:24:19;6.95;;;2.22;;
67516;SDS011;68821;59.134;37.894;2023-08-21T01:26:45;5.50;;;2.17;;
67516;SDS011;68821;59.134;37.894;2023-08-21T01:29:11;8.23;;;2.53;;
67516;SDS011;68821;59.134;37.894;2023-08-21T01:31:38;6.57;;;2.47;;
67516;SDS011;68821;59.134;37.894;2023-08-21T01:34:09;6.30;;;2.50;;
67516;SDS011;68821;59.134;37.894;2023-08-21T01:36:39;6.57;;;2.20;;
67516;SDS011;68821;59.134;37.894;2023-08-21T01:39:05;5.82;;;2.47;;
67516;SDS011;68821;59.134;37.894;2023-08-21T01:41:32;6.35;;;2.65;;
67516;SDS011;68821;59.134;37.894;2023-08-21T01:43:58;5.32;;;1.90;;
67516;SDS011;68821;59.134;37.894;2023-08-21T01:46:24;7.75;;;2.75;;
67516;SDS011;68821;59.134;37.894;2023-08-21T01:48:50;5.00;;;2.30;;
67516;SDS011;68821;59.134;37.894;2023-08-21T01:51:16;5.93;;;2.17;;
67516;SDS011;68821;59.134;37.894;2023-08-21T01:53:42;7.30;;;2.53;;
67516;SDS011;68821;59.134;37.894;2023-08-21T01:56:08;7.75;;;2.53;;
67516;SDS011;68821;59.134;37.894;2023-08-21T01:58:34;6.13;;;2.10;;
67516;SDS011;68821;59.134;37.894;2023-08-21T02:01:00;8.75;;;3.03;;
67516;SDS011;68821;59.134;37.894;2023-08-21T02:03:26;7.88;;;2.75;;
67516;SDS011;68821;59.134;37.894;2023-08-21T02:05:55;11.65;;;3.13;;
67516;SDS011;68821;59.134;37.894;2023-08-21T02:08:25;6.95;;;3.05;;
67516;SDS011;68821;59.134;37.894;2023-08-21T02:10:56;6.63;;;2.72;;
67516;SDS011;68821;59.134;37.894;2023-08-21T02:13:22;9.13;;;2.75;;
67516;SDS011;68821;59.134;37.894;2023-08-21T02:15:48;4.95;;;2.30;;
67516;SDS011;68821;59.134;37.894;2023-08-21T02:18:14;9.30;;;2.88;;
67516;SDS011;68821;59.134;37.894;2023-08-21T02:20:40;5.38;;;2.28;;
67516;SDS011;68821;59.134;37.894;2023-08-21T02:23:06;8.30;;;2.58;;
67516;SDS011;68821;59.134;37.894;2023-08-21T02:25:32;9.88;;;3.58;;
67516;SDS011;68821;59.134;37.894;2023-08-21T02:27:59;9.25;;;2.40;;
67516;SDS011;68821;59.134;37.894;2023-08-21T02:30:25;7.68;;;2.40;;
67516;SDS011;68821;59.134;37.894;2023-08-21T02:32:53;4.78;;;2.10;;
67516;SDS011;68821;59.134;37.894;2023-08-21T02:35:19;7.10;;;2.38;;
67516;SDS011;68821;59.134;37.894;2023-08-21T02:40:12;7.40;;;2.13;;
67516;SDS011;68821;59.134;37.894;2023-08-21T02:42:38;5.55;;;2.17;;
67516;SDS011;68821;59.134;37.894;2023-08-21T02:45:04;5.45;;;2.53;;
67516;SDS011;68821;59.134;37.894;2023-08-21T02:47:36;10.20;;;2.97;;
67516;SDS011;68821;59.134;37.894;2023-08-21T02:50:04;6.30;;;2.60;;
67516;SDS011;68821;59.134;37.894;2023-08-21T02:52:31;5.20;;;2.38;;
67516;SDS011;68821;59.134;37.894;2023-08-21T02:57:24;7.70;;;2.70;;
67516;SDS011;68821;59.134;37.894;2023-08-21T02:59:51;6.55;;;2.55;;
67516;SDS011;68821;59.134;37.894;2023-08-21T03:02:18;6.32;;;2.20;;
67516;SDS011;68821;59.134;37.894;2023-08-21T03:04:44;5.03;;;1.88;;
67516;SDS011;68821;59.134;37.894;2023-08-21T03:07:10;6.47;;;2.90;;
67516;SDS011;68821;59.134;37.894;2023-08-21T03:09:37;6.18;;;2.42;;
67516;SDS011;68821;59.134;37.894;2023-08-21T03:12:03;4.43;;;1.70;;
67516;SDS011;68821;59.134;37.894;2023-08-21T03:14:29;4.78;;;1.50;;
67516;SDS011;68821;59.134;37.894;2023-08-21T03:16:55;3.85;;;1.48;;
67516;SDS011;68821;59.134;37.894;2023-08-21T03:19:21;6.95;;;2.00;;
67516;SDS011;68821;59.134;37.894;2023-08-21T03:21:47;4.40;;;1.70;;
67516;SDS011;68821;59.134;37.894;2023-08-21T03:24:14;5.40;;;1.80;;
67516;SDS011;68821;59.134;37.894;2023-08-21T03:26:40;7.70;;;1.90;;
67516;SDS011;68821;59.134;37.894;2023-08-21T03:29:06;7.60;;;1.80;;
67516;SDS011;68821;59.134;37.894;2023-08-21T03:31:32;6.22;;;2.45;;
67516;SDS011;68821;59.134;37.894;2023-08-21T03:33:58;9.45;;;3.95;;
67516;SDS011;68821;59.134;37.894;2023-08-21T03:36:25;6.80;;;3.15;;
67516;SDS011;68821;59.134;37.894;2023-08-21T03:39:00;5.20;;;2.05;;
67516;SDS011;68821;59.134;37.894;2023-08-21T03:41:27;8.40;;;1.77;;
67516;SDS011;68821;59.134;37.894;2023-08-21T03:43:55;6.05;;;1.85;;
67516;SDS011;68821;59.134;37.894;2023-08-21T03:46:21;6.00;;;1.80;;
67516;SDS011;68821;59.134;37.894;2023-08-21T03:48:47;6.63;;;3.13;;
67516;SDS011;68821;59.134;37.894;2023-08-21T03:51:14;4.68;;;2.03;;
67516;SDS011;68821;59.134;37.894;2023-08-21T03:53:40;12.48;;;2.10;;
67516;SDS011;68821;59.134;37.894;2023-08-21T03:56:06;4.07;;;1.80;;
67516;SDS011;68821;59.134;37.894;2023-08-21T03:58:32;5.43;;;2.10;;
67516;SDS011;68821;59.134;37.894;2023-08-21T04:00:58;5.13;;;1.95;;
67516;SDS011;68821;59.134;37.894;2023-08-21T04:03:24;6.72;;;2.03;;
67516;SDS011;68821;59.134;37.894;2023-08-21T04:05:52;5.95;;;2.17;;
67516;SDS011;68821;59.134;37.894;2023-08-21T04:08:19;5.35;;;2.13;;
67516;SDS011;68821;59.134;37.894;2023-08-21T04:10:45;4.80;;;2.00;;
67516;SDS011;68821;59.134;37.894;2023-08-21T04:13:11;9.82;;;2.13;;
67516;SDS011;68821;59.134;37.894;2023-08-21T04:15:37;4.47;;;2.08;;
67516;SDS011;68821;59.134;37.894;2023-08-21T04:18:04;4.97;;;1.90;;
67516;SDS011;68821;59.134;37.894;2023-08-21T04:20:30;5.82;;;2.22;;
67516;SDS011;68821;59.134;37.894;2023-08-21T04:22:56;9.23;;;2.47;;
67516;SDS011;68821;59.134;37.894;2023-08-21T04:25:23;6.97;;;2.20;;
67516;SDS011;68821;59.134;37.894;2023-08-21T04:27:49;4.72;;;2.05;;
67516;SDS011;68821;59.134;37.894;2023-08-21T04:30:15;12.00;;;2.60;;
67516;SDS011;68821;59.134;37.894;2023-08-21T04:32:41;11.48;;;2.40;;
67516;SDS011;68821;59.134;37.894;2023-08-21T04:35:07;5.47;;;1.95;;
67516;SDS011;68821;59.134;37.894;2023-08-21T04:37:34;4.68;;;2.20;;
67516;SDS011;68821;59.134;37.894;2023-08-21T04:40:00;5.38;;;1.73;;
67516;SDS011;68821;59.134;37.894;2023-08-21T04:42:29;10.85;;;2.80;;
67516;SDS011;68821;59.134;37.894;2023-08-21T04:44:55;10.52;;;3.00;;
67516;SDS011;68821;59.134;37.894;2023-08-21T04:47:22;6.07;;;2.70;;
67516;SDS011;68821;59.134;37.894;2023-08-21T04:49:50;7.43;;;2.72;;
67516;SDS011;68821;59.134;37.894;2023-08-21T04:52:16;7.72;;;2.83;;
67516;SDS011;68821;59.134;37.894;2023-08-21T04:54:42;6.13;;;2.63;;
67516;SDS011;68821;59.134;37.894;2023-08-21T04:57:08;10.65;;;2.55;;
67516;SDS011;68821;59.134;37.894;2023-08-21T04:59:35;6.90;;;2.25;;
67516;SDS011;68821;59.134;37.894;2023-08-21T05:02:02;6.57;;;2.40;;
67516;SDS011;68821;59.134;37.894;2023-08-21T05:04:28;7.03;;;2.58;;
67516;SDS011;68821;59.134;37.894;2023-08-21T05:06:55;7.32;;;2.50;;
67516;SDS011;68821;59.134;37.894;2023-08-21T05:09:21;7.78;;;2.20;;
67516;SDS011;68821;59.134;37.894;2023-08-21T05:11:47;6.70;;;2.38;;
67516;SDS011;68821;59.134;37.894;2023-08-21T05:14:13;11.13;;;2.67;;
67516;SDS011;68821;59.134;37.894;2023-08-21T05:16:39;5.53;;;2.58;;
67516;SDS011;68821;59.134;37.894;2023-08-21T05:19:05;7.40;;;2.75;;
67516;SDS011;68821;59.134;37.894;2023-08-21T05:21:31;9.77;;;2.97;;
67516;SDS011;68821;59.134;37.894;2023-08-21T05:23:58;12.13;;;3.15;;
67516;SDS011;68821;59.134;37.894;2023-08-21T05:26:24;18.02;;;3.53;;
67516;SDS011;68821;59.134;37.894;2023-08-21T05:28:50;11.48;;;3.05;;
67516;SDS011;68821;59.134;37.894;2023-08-21T05:31:16;6.45;;;2.70;;
67516;SDS011;68821;59.134;37.894;2023-08-21T05:33:42;12.38;;;2.90;;
67516;SDS011;68821;59.134;37.894;2023-08-21T05:36:08;7.90;;;2.92;;
67516;SDS011;68821;59.134;37.894;2023-08-21T05:38:34;7.53;;;2.58;;
67516;SDS011;68821;59.134;37.894;2023-08-21T05:41:00;10.65;;;3.70;;
67516;SDS011;68821;59.134;37.894;2023-08-21T05:43:26;10.82;;;3.72;;
67516;SDS011;68821;59.134;37.894;2023-08-21T05:45:52;11.77;;;4.50;;
67516;SDS011;68821;59.134;37.894;2023-08-21T05:48:18;20.23;;;5.30;;
67516;SDS011;68821;59.134;37.894;2023-08-21T05:50:44;11.35;;;3.90;;
67516;SDS011;68821;59.134;37.894;2023-08-21T05:53:10;11.57;;;3.70;;
67516;SDS011;68821;59.134;37.894;2023-08-21T05:55:37;10.00;;;3.63;;
67516;SDS011;68821;59.134;37.894;2023-08-21T05:58:03;8.60;;;3.25;;
67516;SDS011;68821;59.134;37.894;2023-08-21T06:00:29;8.23;;;4.15;;
67516;SDS011;68821;59.134;37.894;2023-08-21T06:02:55;8.52;;;3.60;;
67516;SDS011;68821;59.134;37.894;2023-08-21T06:05:21;8.13;;;3.47;;
67516;SDS011;68821;59.134;37.894;2023-08-21T06:07:47;8.10;;;3.65;;
67516;SDS011;68821;59.134;37.894;2023-08-21T06:10:13;8.25;;;3.47;;
67516;SDS011;68821;59.134;37.894;2023-08-21T06:15:07;6.80;;;3.00;;
67516;SDS011;68821;59.134;37.894;2023-08-21T06:17:34;7.63;;;3.53;;
67516;SDS011;68821;59.134;37.894;2023-08-21T06:20:01;7.30;;;2.85;;
67516;SDS011;68821;59.134;37.894;2023-08-21T06:22:28;13.48;;;3.22;;
67516;SDS011;68821;59.134;37.894;2023-08-21T06:24:54;11.00;;;3.17;;
67516;SDS011;68821;59.134;37.894;2023-08-21T06:27:20;9.77;;;3.35;;
67516;SDS011;68821;59.134;37.894;2023-08-21T06:29:46;8.60;;;2.90;;
67516;SDS011;68821;59.134;37.894;2023-08-21T06:32:12;7.78;;;3.30;;
67516;SDS011;68821;59.134;37.894;2023-08-21T06:34:38;10.48;;;3.55;;
67516;SDS011;68821;59.134;37.894;2023-08-21T06:37:04;8.50;;;3.15;;
67516;SDS011;68821;59.134;37.894;2023-08-21T06:39:31;6.45;;;3.58;;
67516;SDS011;68821;59.134;37.894;2023-08-21T06:41:57;10.52;;;4.25;;
67516;SDS011;68821;59.134;37.894;2023-08-21T06:44:23;5.20;;;3.05;;
67516;SDS011;68821;59.134;37.894;2023-08-21T06:46:49;10.65;;;3.78;;
67516;SDS011;68821;59.134;37.894;2023-08-21T06:49:15;12.75;;;4.00;;
67516;SDS011;68821;59.134;37.894;2023-08-21T06:51:41;18.30;;;4.78;;
67516;SDS011;68821;59.134;37.894;2023-08-21T06:54:07;14.55;;;5.10;;
67516;SDS011;68821;59.134;37.894;2023-08-21T06:56:33;12.88;;;5.22;;
67516;SDS011;68821;59.134;37.894;2023-08-21T06:58:59;12.57;;;5.25;;
67516;SDS011;68821;59.134;37.894;2023-08-21T07:01:26;23.42;;;5.28;;
67516;SDS011;68821;59.134;37.894;2023-08-21T07:03:52;10.60;;;5.18;;
67516;SDS011;68821;59.134;37.894;2023-08-21T07:06:18;17.83;;;4.90;;
67516;SDS011;68821;59.134;37.894;2023-08-21T07:08:44;13.98;;;4.25;;
67516;SDS011;68821;59.134;37.894;2023-08-21T07:11:10;11.13;;;3.80;;
67516;SDS011;68821;59.134;37.894;2023-08-21T07:13:38;7.65;;;3.25;;
67516;SDS011;68821;59.134;37.894;2023-08-21T07:16:04;6.60;;;3.35;;
67516;SDS011;68821;59.134;37.894;2023-08-21T07:21:00;8.55;;;3.05;;
67516;SDS011;68821;59.134;37.894;2023-08-21T07:23:26;7.35;;;3.15;;
67516;SDS011;68821;59.134;37.894;2023-08-21T07:25:53;6.25;;;3.33;;
67516;SDS011;68821;59.134;37.894;2023-08-21T07:28:19;11.13;;;3.72;;
67516;SDS011;68821;59.134;37.894;2023-08-21T07:30:45;9.48;;;4.10;;
67516;SDS011;68821;59.134;37.894;2023-08-21T07:33:11;6.57;;;3.00;;
67516;SDS011;68821;59.134;37.894;2023-08-21T07:35:37;7.50;;;2.45;;
67516;SDS011;68821;59.134;37.894;2023-08-21T07:38:03;7.88;;;2.50;;
67516;SDS011;68821;59.134;37.894;2023-08-21T07:40:29;5.40;;;2.10;;
67516;SDS011;68821;59.134;37.894;2023-08-21T07:42:55;5.15;;;1.60;;
67516;SDS011;68821;59.134;37.894;2023-08-21T07:45:21;8.57;;;1.92;;
67516;SDS011;68821;59.134;37.894;2023-08-21T07:47:47;7.78;;;2.28;;
67516;SDS011;68821;59.134;37.894;2023-08-21T07:50:13;6.10;;;1.95;;
67516;SDS011;68821;59.134;37.894;2023-08-21T07:52:42;5.57;;;1.70;;
67516;SDS011;68821;59.134;37.894;2023-08-21T07:55:08;6.07;;;1.50;;
67516;SDS011;68821;59.134;37.894;2023-08-21T07:57:34;3.75;;;1.70;;
67516;SDS011;68821;59.134;37.894;2023-08-21T08:00:00;6.28;;;1.80;;
67516;SDS011;68821;59.134;37.894;2023-08-21T08:02:26;7.75;;;1.50;;
67516;SDS011;68821;59.134;37.894;2023-08-21T08:04:52;7.63;;;1.80;;
67516;SDS011;68821;59.134;37.894;2023-08-21T08:07:19;6.97;;;2.15;;
67516;SDS011;68821;59.134;37.894;2023-08-21T08:09:45;4.15;;;1.65;;
67516;SDS011;68821;59.134;37.894;2023-08-21T08:12:12;6.13;;;1.75;;
67516;SDS011;68821;59.134;37.894;2023-08-21T08:14:38;5.28;;;1.60;;
67516;SDS011;68821;59.134;37.894;2023-08-21T08:17:04;3.38;;;1.42;;
67516;SDS011;68821;59.134;37.894;2023-08-21T08:19:30;3.63;;;1.63;;
67516;SDS011;68821;59.134;37.894;2023-08-21T08:21:56;4.88;;;1.80;;
67516;SDS011;68821;59.134;37.894;2023-08-21T08:24:23;5.93;;;1.92;;
67516;SDS011;68821;59.134;37.894;2023-08-21T08:26:49;7.57;;;2.70;;
67516;SDS011;68821;59.134;37.894;2023-08-21T08:29:15;5.03;;;2.20;;
67516;SDS011;68821;59.134;37.894;2023-08-21T08:31:41;4.38;;;2.05;;
67516;SDS011;68821;59.134;37.894;2023-08-21T08:34:07;8.65;;;3.42;;
67516;SDS011;68821;59.134;37.894;2023-08-21T08:36:34;19.73;;;5.80;;
67516;SDS011;68821;59.134;37.894;2023-08-21T08:39:01;16.60;;;6.43;;
67516;SDS011;68821;59.134;37.894;2023-08-21T08:41:33;19.70;;;6.50;;
67516;SDS011;68821;59.134;37.894;2023-08-21T08:44:09;17.60;;;6.53;;
67516;SDS011;68821;59.134;37.894;2023-08-21T08:46:38;18.92;;;5.35;;
67516;SDS011;68821;59.134;37.894;2023-08-21T08:49:04;6.78;;;2.38;;
67516;SDS011;68821;59.134;37.894;2023-08-21T08:51:30;6.00;;;2.50;;
67516;SDS011;68821;59.134;37.894;2023-08-21T08:54:00;7.13;;;2.42;;
67516;SDS011;68821;59.134;37.894;2023-08-21T08:56:26;6.90;;;2.45;;
67516;SDS011;68821;59.134;37.894;2023-08-21T08:58:52;17.83;;;6.60;;
67516;SDS011;68821;59.134;37.894;2023-08-21T09:01:18;20.88;;;8.57;;
67516;SDS011;68821;59.134;37.894;2023-08-21T09:03:44;21.70;;;8.43;;
67516;SDS011;68821;59.134;37.894;2023-08-21T09:06:11;22.55;;;8.90;;
67516;SDS011;68821;59.134;37.894;2023-08-21T09:08:39;21.65;;;8.05;;
67516;SDS011;68821;59.134;37.894;2023-08-21T09:11:19;28.80;;;10.60;;
67516;SDS011;68821;59.134;37.894;2023-08-21T09:13:45;16.67;;;6.57;;
67516;SDS011;68821;59.134;37.894;2023-08-21T09:16:18;7.85;;;2.67;;
67516;SDS011;68821;59.134;37.894;2023-08-21T09:18:50;3.40;;;1.33;;
67516;SDS011;68821;59.134;37.894;2023-08-21T09:21:18;4.28;;;1.70;;
67516;SDS011;68821;59.134;37.894;2023-08-21T09:23:46;3.67;;;1.58;;
67516;SDS011;68821;59.134;37.894;2023-08-21T09:26:19;5.85;;;1.80;;
67516;SDS011;68821;59.134;37.894;2023-08-21T09:28:46;7.68;;;2.47;;
67516;SDS011;68821;59.134;37.894;2023-08-21T09:31:14;13.20;;;3.58;;
67516;SDS011;68821;59.134;37.894;2023-08-21T09:33:41;10.10;;;2.30;;
67516;SDS011;68821;59.134;37.894;2023-08-21T09:36:08;7.50;;;2.00;;
67516;SDS011;68821;59.134;37.894;2023-08-21T09:38:38;6.07;;;2.03;;
67516;SDS011;68821;59.134;37.894;2023-08-21T09:41:05;5.88;;;2.13;;
67516;SDS011;68821;59.134;37.894;2023-08-21T09:43:33;7.05;;;1.98;;
67516;SDS011;68821;59.134;37.894;2023-08-21T09:46:08;8.13;;;3.00;;
67516;SDS011;68821;59.134;37.894;2023-08-21T09:48:34;7.15;;;2.10;;
67516;SDS011;68821;59.134;37.894;2023-08-21T09:51:01;7.15;;;2.05;;
67516;SDS011;68821;59.134;37.894;2023-08-21T09:53:30;7.97;;;2.72;;
67516;SDS011;68821;59.134;37.894;2023-08-21T09:55:56;4.80;;;1.80;;
67516;SDS011;68821;59.134;37.894;2023-08-21T09:58:22;5.55;;;1.75;;
67516;SDS011;68821;59.134;37.894;2023-08-21T10:00:49;5.40;;;1.80;;
67516;SDS011;68821;59.134;37.894;2023-08-21T10:03:18;12.35;;;3.40;;
67516;SDS011;68821;59.134;37.894;2023-08-21T10:05:46;9.73;;;3.60;;
67516;SDS011;68821;59.134;37.894;2023-08-21T10:08:13;5.15;;;1.92;;
67516;SDS011;68821;59.134;37.894;2023-08-21T10:10:41;6.15;;;1.90;;
67516;SDS011;68821;59.134;37.894;2023-08-21T10:13:08;4.95;;;1.48;;
67516;SDS011;68821;59.134;37.894;2023-08-21T10:15:34;5.20;;;1.40;;
67516;SDS011;68821;59.134;37.894;2023-08-21T10:20:45;6.00;;;1.70;;
67516;SDS011;68821;59.134;37.894;2023-08-21T10:23:23;13.23;;;4.15;;
67516;SDS011;68821;59.134;37.894;2023-08-21T10:25:53;8.75;;;3.65;;
67516;SDS011;68821;59.134;37.894;2023-08-21T10:28:24;7.45;;;2.63;;
67516;SDS011;68821;59.134;37.894;2023-08-21T10:30:50;13.15;;;5.65;;
67516;SDS011;68821;59.134;37.894;2023-08-21T10:33:17;22.75;;;10.48;;
67516;SDS011;68821;59.134;37.894;2023-08-21T10:35:45;19.58;;;8.60;;
67516;SDS011;68821;59.134;37.894;2023-08-21T10:38:12;21.67;;;8.52;;
67516;SDS011;68821;59.134;37.894;2023-08-21T10:43:38;6.78;;;1.80;;
67516;SDS011;68821;59.134;37.894;2023-08-21T10:46:06;11.18;;;1.98;;
67516;SDS011;68821;59.134;37.894;2023-08-21T10:48:32;8.07;;;2.70;;
67516;SDS011;68821;59.134;37.894;2023-08-21T10:51:02;3.35;;;1.25;;
67516;SDS011;68821;59.134;37.894;2023-08-21T10:53:30;5.53;;;1.50;;
67516;SDS011;68821;59.134;37.894;2023-08-21T10:55:57;6.60;;;2.13;;
67516;SDS011;68821;59.134;37.894;2023-08-21T10:58:27;4.63;;;1.52;;
67516;SDS011;68821;59.134;37.894;2023-08-21T11:00:57;6.78;;;1.55;;
67516;SDS011;68821;59.134;37.894;2023-08-21T11:03:24;5.30;;;1.73;;
67516;SDS011;68821;59.134;37.894;2023-08-21T11:06:01;4.72;;;1.70;;
67516;SDS011;68821;59.134;37.894;2023-08-21T11:08:28;5.75;;;2.20;;
67516;SDS011;68821;59.134;37.894;2023-08-21T11:10:55;8.73;;;2.95;;
67516;SDS011;68821;59.134;37.894;2023-08-21T11:13:24;10.80;;;3.83;;
67516;SDS011;68821;59.134;37.894;2023-08-21T11:15:57;8.65;;;2.95;;
67516;SDS011;68821;59.134;37.894;2023-08-21T11:21:30;7.05;;;1.92;;
67516;SDS011;68821;59.134;37.894;2023-08-21T11:23:51;8.05;;;2.40;;
67516;SDS011;68821;59.134;37.894;2023-08-21T11:26:17;3.70;;;1.67;;
67516;SDS011;68821;59.134;37.894;2023-08-21T11:28:43;5.88;;;2.10;;
67516;SDS011;68821;59.134;37.894;2023-08-21T11:31:10;4.68;;;1.67;;
67516;SDS011;68821;59.134;37.894;2023-08-21T11:33:36;8.32;;;1.80;;
67516;SDS011;68821;59.134;37.894;2023-08-21T11:36:03;5.53;;;2.35;;
67516;SDS011;68821;59.134;37.894;2023-08-21T11:38:30;4.78;;;2.17;;
67516;SDS011;68821;59.134;37.894;2023-08-21T11:41:00;9.45;;;2.65;;
67516;SDS011;68821;59.134;37.894;2023-08-21T11:43:35;8.70;;;2.88;;
67516;SDS011;68821;59.134;37.894;2023-08-21T11:46:06;8.02;;;2.97;;
67516;SDS011;68821;59.134;37.894;2023-08-21T11:48:32;14.55;;;3.15;;
67516;SDS011;68821;59.134;37.894;2023-08-21T11:51:00;13.43;;;5.10;;
67516;SDS011;68821;59.134;37.894;2023-08-21T11:53:30;13.52;;;4.70;;
67516;SDS011;68821;59.134;37.894;2023-08-21T11:56:01;10.10;;;3.78;;
67516;SDS011;68821;59.134;37.894;2023-08-21T11:58:29;14.15;;;4.10;;
67516;SDS011;68821;59.134;37.894;2023-08-21T12:01:04;8.02;;;3.05;;
67516;SDS011;68821;59.134;37.894;2023-08-21T12:03:35;14.35;;;3.60;;
67516;SDS011;68821;59.134;37.894;2023-08-21T12:06:10;16.90;;;4.20;;
67516;SDS011;68821;59.134;37.894;2023-08-21T12:08:38;18.02;;;5.13;;
67516;SDS011;68821;59.134;37.894;2023-08-21T12:11:05;8.98;;;3.72;;
67516;SDS011;68821;59.134;37.894;2023-08-21T12:13:31;16.23;;;4.70;;
67516;SDS011;68821;59.134;37.894;2023-08-21T12:15:57;15.77;;;4.53;;
67516;SDS011;68821;59.134;37.894;2023-08-21T12:18:23;10.07;;;4.25;;
67516;SDS011;68821;59.134;37.894;2023-08-21T12:20:50;11.68;;;3.35;;
67516;SDS011;68821;59.134;37.894;2023-08-21T12:25:42;26.40;;;3.90;;
67516;SDS011;68821;59.134;37.894;2023-08-21T12:28:08;6.97;;;2.22;;
67516;SDS011;68821;59.134;37.894;2023-08-21T12:30:34;10.07;;;2.90;;
67516;SDS011;68821;59.134;37.894;2023-08-21T12:33:00;6.22;;;1.90;;
67516;SDS011;68821;59.134;37.894;2023-08-21T12:35:26;10.02;;;2.60;;
67516;SDS011;68821;59.134;37.894;2023-08-21T12:37:56;4.22;;;1.73;;
67516;SDS011;68821;59.134;37.894;2023-08-21T12:40:24;4.38;;;1.60;;
67516;SDS011;68821;59.134;37.894;2023-08-21T12:42:50;5.03;;;1.48;;
67516;SDS011;68821;59.134;37.894;2023-08-21T12:45:16;3.95;;;1.40;;
67516;SDS011;68821;59.134;37.894;2023-08-21T12:47:42;3.65;;;1.52;;
67516;SDS011;68821;59.134;37.894;2023-08-21T12:50:08;8.70;;;1.65;;
67516;SDS011;68821;59.134;37.894;2023-08-21T12:52:35;4.65;;;1.40;;
67516;SDS011;68821;59.134;37.894;2023-08-21T12:55:01;11.27;;;1.85;;
67516;SDS011;68821;59.134;37.894;2023-08-21T12:57:31;6.00;;;1.67;;
67516;SDS011;68821;59.134;37.894;2023-08-21T12:59:57;5.43;;;1.60;;
67516;SDS011;68821;59.134;37.894;2023-08-21T13:02:23;6.25;;;1.80;;
67516;SDS011;68821;59.134;37.894;2023-08-21T13:04:49;6.28;;;1.90;;
67516;SDS011;68821;59.134;37.894;2023-08-21T13:07:15;3.72;;;1.63;;
67516;SDS011;68821;59.134;37.894;2023-08-21T13:09:41;4.82;;;1.38;;
67516;SDS011;68821;59.134;37.894;2023-08-21T13:12:07;8.25;;;1.80;;
67516;SDS011;68821;59.134;37.894;2023-08-21T13:14:34;6.63;;;2.20;;
67516;SDS011;68821;59.134;37.894;2023-08-21T13:17:00;13.95;;;2.80;;
67516;SDS011;68821;59.134;37.894;2023-08-21T13:19:26;11.45;;;3.10;;
67516;SDS011;68821;59.134;37.894;2023-08-21T13:21:51;6.55;;;1.80;;
67516;SDS011;68821;59.134;37.894;2023-08-21T13:24:20;5.63;;;2.20;;
67516;SDS011;68821;59.134;37.894;2023-08-21T13:26:46;5.10;;;1.90;;
67516;SDS011;68821;59.134;37.894;2023-08-21T13:29:12;7.95;;;2.10;;
67516;SDS011;68821;59.134;37.894;2023-08-21T13:31:39;8.35;;;2.58;;
67516;SDS011;68821;59.134;37.894;2023-08-21T13:34:05;7.13;;;2.10;;
67516;SDS011;68821;59.134;37.894;2023-08-21T13:36:31;7.43;;;1.80;;
67516;SDS011;68821;59.134;37.894;2023-08-21T13:38:57;9.07;;;2.78;;
67516;SDS011;68821;59.134;37.894;2023-08-21T13:41:23;10.00;;;3.17;;
67516;SDS011;68821;59.134;37.894;2023-08-21T13:43:50;7.63;;;2.13;;
67516;SDS011;68821;59.134;37.894;2023-08-21T13:46:16;9.23;;;3.00;;
67516;SDS011;68821;59.134;37.894;2023-08-21T13:48:42;12.23;;;2.35;;
67516;SDS011;68821;59.134;37.894;2023-08-21T13:51:09;5.65;;;1.60;;
67516;SDS011;68821;59.134;37.894;2023-08-21T13:53:35;4.05;;;1.45;;
67516;SDS011;68821;59.134;37.894;2023-08-21T13:56:01;4.53;;;1.52;;
67516;SDS011;68821;59.134;37.894;2023-08-21T13:58:27;3.00;;;1.10;;
67516;SDS011;68821;59.134;37.894;2023-08-21T14:00:53;4.40;;;1.33;;
67516;SDS011;68821;59.134;37.894;2023-08-21T14:03:21;9.20;;;2.20;;
67516;SDS011;68821;59.134;37.894;2023-08-21T14:05:47;7.70;;;2.10;;
67516;SDS011;68821;59.134;37.894;2023-08-21T14:08:13;11.30;;;3.08;;
67516;SDS011;68821;59.134;37.894;2023-08-21T14:10:39;11.15;;;3.55;;
67516;SDS011;68821;59.134;37.894;2023-08-21T14:13:05;8.48;;;2.80;;
67516;SDS011;68821;59.134;37.894;2023-08-21T14:15:33;6.68;;;2.33;;
67516;SDS011;68821;59.134;37.894;2023-08-21T14:18:00;8.57;;;1.52;;
67516;SDS011;68821;59.134;37.894;2023-08-21T14:20:27;9.77;;;3.38;;
67516;SDS011;68821;59.134;37.894;2023-08-21T14:22:53;20.13;;;4.43;;
67516;SDS011;68821;59.134;37.894;2023-08-21T14:25:19;14.00;;;3.60;;
67516;SDS011;68821;59.134;37.894;2023-08-21T14:27:45;8.38;;;2.72;;
67516;SDS011;68821;59.134;37.894;2023-08-21T14:30:11;9.40;;;1.92;;
67516;SDS011;68821;59.134;37.894;2023-08-21T14:32:38;5.25;;;2.08;;
67516;SDS011;68821;59.134;37.894;2023-08-21T14:35:04;4.28;;;1.50;;
67516;SDS011;68821;59.134;37.894;2023-08-21T14:37:33;5.82;;;1.98;;
67516;SDS011;68821;59.134;37.894;2023-08-21T14:40:02;6.00;;;2.10;;
67516;SDS011;68821;59.134;37.894;2023-08-21T14:45:01;4.85;;;1.70;;
67516;SDS011;68821;59.134;37.894;2023-08-21T14:47:28;6.00;;;1.85;;
67516;SDS011;68821;59.134;37.894;2023-08-21T14:49:54;9.35;;;2.47;;
67516;SDS011;68821;59.134;37.894;2023-08-21T14:52:20;8.85;;;2.22;;